Stoyles, Steve
United StatesManBorn 19561993 – 2012Runner id 36131
Events
51
50 race dates
Best pace
11.338
km/h · 2008
Best finish
7th
of 67 · 2011
Distance raced
3,422
km · splits not double-counted
Pace over time
km/h · higher is faster
Pace over time: 51 races from 1993 to 2012, ranging from 2.08 to 12.82 kilometres per hour, where higher is faster. A second, age-graded series is drawn above it; the gap between the two is the age credit.
- Actual pace
- Age-graded pace
Results
| Date | Event | Distance | Result | Pace km/h | Placing |
|---|---|---|---|---|---|
| 1993-09-18 | Pacific Crest Trail 50 KmUnited States | 50km | 9:16:34 h | 5.390 | 51/52 |
| 1993-09-18 | PCT 50 Mile Trail RunUnited States | 50mi | 9:16:34 h | 8.675 | 50/51 |
| 1999-03-20 | 24h | 50.000 km | 2.083 | 45/53 | |
| 1999-04-24 | 50km | 6:54:55 h | 7.230 | 95/129 | |
| 2000-04-29 | 50km | 6:32:12 h | 7.649 | 82/170 | |
| 2006-04-23 | 50km | 5:31:08 h | 9.060 | 34/49 | |
| 2006-11-04 | 50km | 5:03:18 h | 9.891 | 8/38 | |
| 2007-02-03 | Pigtails Run 50KUnited States | 50km | 5:14:15 h | 9.547 | 27/44 |
| 2007-03-17 | Chuckanut 50KUnited States | 50km | 5:44:50 h | 8.700 | 84/260 |
| 2007-04-28 | Capitol Peak 55KUnited States | 55km | 7:54:17 h | 6.958 | 24/30 |
| 2007-05-19 | Watershed Preserve 12 Hr Trail RaceUnited States | 12h | 100.954 km | 8.413 | 9/56 |
| 2007-06-09 | Lake Youngs UltraUnited States | 28.8mi | 4:54:00 h | 9.459 | 30/62 |
| 2007-09-15 | 50km | 6:45:34 h | 7.397 | 30/86 | |
| 2007-11-03 | 50mi | 10:59:33 h | 7.320 | 25/29 | |
| 2007-12-22 | 50km | 5:56:49 h | 8.408 | 36/42 | |
| 2008-02-03 | Lord Hill Trail RunUnited States | 50km | 5:32:00 h | 9.036 | 6/30 |
| 2008-03-15 | Pacific Rim One DayUnited States | 24h | 168.981 km | 7.041 | 7/43 |
| 2008-04-26 | 55km | 6:28:30 h | 8.494 | 21/46 | |
| 2008-06-14 | Lake Youngs UltraUnited States | 28.8mi | 4:05:16 h | 11.338 | 17/95 |
| 2008-09-13 | Cle Elum Ridge 50kUnited States | 50km | 6:30:00 h | 7.692 | 37/80 |
| 2008-10-20 | Baker Lake 50K Ultra Trail RunUnited States | 50km | 7:50:20 h | 6.378 | 68/86 |
| 2008-11-15 | 50km | 5:27:03 h | 9.173 | 16/35 | |
| 2009-01-10 | Bridle Trails Winter Running FestivalUnited States | 50km | 6:27:20 h | 7.745 | 38/50 |
| 2009-01-24 | Pigtails Run 50KUnited States | 50km | 4:58:00 h | 10.067 | 12/49 |
| 2009-02-07 | Orcas Island 50kUnited States | 50km | 7:51:50 h | 6.358 | 93/106 |
| 2009-03-21 | Pacific Rim One DayUnited States | 24h | 162.544 km | 6.773 | 10/49 |
| 2009-04-25 | 50mi | 11:17:07 h | 7.130 | 36/43 | |
| 2009-05-16 | Watershed Preserve 12 Hr Trail RaceUnited States | 12h | 81.336 km | 6.778 | 29/66 |
| 2009-06-06 | Blanchard Mountain Trail UltraUnited States | 50km | 7:29:00 h | 6.682 | 5/17 |
| 2009-06-13 | Lake Youngs UltraUnited States | 28.8mi | 4:12:32 h | 11.012 | 17/58 |
| 2009-10-03 | Baker Lake 50K Ultra Trail RunUnited States | 50km | 5:47:00 h | 8.646 | 11/65 |
| 2009-11-07 | Ron Herzog 50KUnited States | 50km | 5:14:59 h | 9.524 | 16/31 |
| 2010-01-16 | 34mi | 5:31:00 h | 9.919 | 20/38 | |
| 2010-01-23 | Pigtails Run 50KUnited States | 50km | 4:47:25 h | 10.438 | 14/80 |
| 2010-02-06 | 50km | 6:30:33 h | 7.681 | 59/123 | |
| 2010-03-20 | 24h | 160.934 km | 6.706 | 13/73 | |
| 2010-04-03 | 50km | 4:45:25 h | 10.511 | 6/22 | |
| 2010-04-25 | 50mi | 9:47:43 h | 8.215 | 44/88 | |
| 2010-05-08 | 50km | 7:15:12 h | 6.893 | 14/39 | |
| 2010-05-15 | 12h | 102.112 km | 8.509 | 10/80 | |
| 2010-06-12 | 28.8mi | 4:20:00 h | 10.696 | 12/61 | |
| 2010-07-31 | 50mi | 10:59:52 h | 7.317 | 110/194 | |
| 2010-10-30 | 50mi | 10:16:22 h | 7.833 | 37/43 | |
| 2010-11-27 | Ghost of Seattle MarathonUnited States | 50km | 6:08:00 h | 8.152 | 16/16 |
| 2011-01-15 | 34mi | 7:34:00 h | 7.231 | 34/43 | |
| 2011-03-19 | 24h | 160.934 km | 6.706 | 7/67 | |
| 2011-04-30 | 50mi | 10:45:36 h | 7.478 | 60/82 | |
| 2011-05-14 | 12h | 88.819 km | 7.402 | 17/68 | |
| 2011-06-11 | 28.8mi | 5:51:23 h | 7.914 | 44/53 | |
| 2012-02-04 | 50km | 7:19:16 h | 6.830 | 102/171 |
Showing 1–50 of 51